createdAt,value
2023-01-25T00:01:22.946Z,38.03
2023-01-25T00:05:25.009Z,35.35
2023-01-25T00:09:26.946Z,34.97
2023-01-25T00:13:28.717Z,40.35
2023-01-25T00:17:30.407Z,35.20
2023-01-25T00:21:32.573Z,37.10
2023-01-25T00:25:34.273Z,34.00
2023-01-25T00:29:36.083Z,39.20
2023-01-25T00:33:37.744Z,36.05
2023-01-25T00:37:44.447Z,39.95
2023-01-25T00:41:46.239Z,38.33
2023-01-25T00:45:48.066Z,37.05
2023-01-25T00:49:50.500Z,38.40
2023-01-25T00:53:52.249Z,33.78
2023-01-25T00:57:54.241Z,40.15
2023-01-25T01:01:56.467Z,33.97
2023-01-25T01:06:07.863Z,42.92
2023-01-25T01:10:10.139Z,40.63
2023-01-25T01:14:13.044Z,38.08
2023-01-25T01:18:14.796Z,35.25
2023-01-25T01:22:16.548Z,37.90
2023-01-25T01:26:21.706Z,41.22
2023-01-25T01:30:24.035Z,38.53
2023-01-25T01:34:26.460Z,39.72
2023-01-25T01:38:29.545Z,45.92
2023-01-25T01:42:31.423Z,35.17
2023-01-25T01:46:39.347Z,43.35
2023-01-25T01:50:52.500Z,39.33
2023-01-25T01:55:00.595Z,37.55
2023-01-25T01:59:04.791Z,43.60
2023-01-25T02:03:09.638Z,42.25
2023-01-25T02:07:24.043Z,38.67
2023-01-25T02:11:28.114Z,37.03
2023-01-25T02:15:38.022Z,39.17
2023-01-25T02:20:03.926Z,39.50
2023-01-25T02:24:35.262Z,44.10
2023-01-25T02:28:50.888Z,37.10
2023-01-25T02:32:52.667Z,40.83
2023-01-25T02:36:55.047Z,40.50
2023-01-25T02:41:07.111Z,41.28
2023-01-25T02:45:13.916Z,42.80
2023-01-25T02:49:17.043Z,36.28
2023-01-25T02:53:18.922Z,35.90
2023-01-25T02:57:23.089Z,35.90
2023-01-25T03:01:25.163Z,33.80
2023-01-25T03:05:27.173Z,41.70
2023-01-25T03:09:28.968Z,33.63
2023-01-25T03:13:32.063Z,41.50
2023-01-25T03:17:34.074Z,47.22
2023-01-25T03:21:36.174Z,35.13
2023-01-25T03:25:37.919Z,39.20
2023-01-25T03:29:46.302Z,42.17
2023-01-25T03:33:53.971Z,33.85
2023-01-25T03:38:00.596Z,38.08
2023-01-25T03:42:02.846Z,39.75
2023-01-25T03:46:06.723Z,36.72
2023-01-25T03:50:10.465Z,41.13
2023-01-25T03:54:13.725Z,36.90
2023-01-25T03:58:15.447Z,42.10
2023-01-25T04:02:17.214Z,41.85
2023-01-25T04:06:19.035Z,32.25
2023-01-25T04:10:20.755Z,37.45
2023-01-25T04:14:42.548Z,40.08
2023-01-25T04:18:46.098Z,36.53
2023-01-25T04:22:49.232Z,36.78
2023-01-25T04:26:53.426Z,36.70
2023-01-25T04:30:56.350Z,36.88
2023-01-25T04:35:01.855Z,46.13
2023-01-25T04:39:05.054Z,38.00
2023-01-25T04:43:07.377Z,43.35
2023-01-25T04:47:10.216Z,39.90
2023-01-25T04:51:12.125Z,36.45
2023-01-25T04:55:13.947Z,37.65
2023-01-25T04:59:18.397Z,39.90
2023-01-25T05:03:21.161Z,43.70
2023-01-25T05:07:23.416Z,41.33
2023-01-25T05:11:25.272Z,38.13
2023-01-25T05:15:36.070Z,36.75
2023-01-25T05:19:38.387Z,34.72
2023-01-25T05:23:41.964Z,38.25
2023-01-25T05:27:45.221Z,40.22
2023-01-25T05:32:15.317Z,44.78
2023-01-25T05:36:17.331Z,42.83
2023-01-25T05:40:19.351Z,41.95
2023-01-25T05:44:21.354Z,41.45
2023-01-25T05:48:25.727Z,49.15
2023-01-25T05:52:28.157Z,41.50
2023-01-25T05:56:30.801Z,43.78
2023-01-25T06:00:34.022Z,42.10
2023-01-25T06:04:36.761Z,43.60
2023-01-25T06:08:38.808Z,42.10
2023-01-25T06:12:41.055Z,43.97
2023-01-25T06:16:42.866Z,44.22
2023-01-25T06:21:04.444Z,45.08
2023-01-25T06:25:11.338Z,44.08
2023-01-25T06:29:13.340Z,44.38
2023-01-25T06:33:15.083Z,44.55
2023-01-25T06:37:16.919Z,41.15
2023-01-25T06:41:19.931Z,47.50
2023-01-25T06:45:21.769Z,45.15
2023-01-25T06:49:23.599Z,49.10
2023-01-25T06:53:30.443Z,45.00
2023-01-25T06:57:32.339Z,56.47
2023-01-25T07:01:35.050Z,53.20
2023-01-25T07:05:37.096Z,50.90
2023-01-25T07:09:38.965Z,45.40
2023-01-25T07:13:42.444Z,42.95
2023-01-25T07:17:44.131Z,44.25
2023-01-25T07:21:47.215Z,46.55
2023-01-25T07:25:50.827Z,51.00
2023-01-25T07:29:52.661Z,49.50
2023-01-25T07:33:56.931Z,49.55
2023-01-25T07:37:58.704Z,48.85
2023-01-25T07:42:00.564Z,54.80
2023-01-25T07:46:11.377Z,49.75
2023-01-25T07:50:13.291Z,47.15
2023-01-25T07:54:15.121Z,49.45
2023-01-25T07:58:17.504Z,47.53
2023-01-25T08:02:19.275Z,48.78
2023-01-25T08:06:39.282Z,47.03
2023-01-25T08:10:41.337Z,50.65
2023-01-25T08:14:43.291Z,53.15
2023-01-25T08:18:58.834Z,51.97
2023-01-25T08:23:00.580Z,52.05
2023-01-25T08:27:02.677Z,53.78
2023-01-25T08:31:12.677Z,55.70
2023-01-25T08:35:14.479Z,58.60
2023-01-25T08:39:18.216Z,61.45
2023-01-25T08:43:20.044Z,59.78
2023-01-25T08:47:21.797Z,65.03
2023-01-25T08:51:24.964Z,61.63
2023-01-25T08:55:26.725Z,63.83
2023-01-25T08:59:28.455Z,58.20
2023-01-25T09:03:30.946Z,65.30
2023-01-25T09:07:37.875Z,68.07
2023-01-25T09:11:40.768Z,62.55
2023-01-25T09:15:42.491Z,62.03
2023-01-25T09:19:44.261Z,48.92
2023-01-25T09:23:51.285Z,58.22
2023-01-25T09:27:59.401Z,57.88
2023-01-25T09:32:01.616Z,66.00
2023-01-25T09:36:08.262Z,56.47
2023-01-25T09:40:22.478Z,65.75
2023-01-25T09:44:44.682Z,61.78
2023-01-25T09:49:07.664Z,63.13
2023-01-25T09:53:24.608Z,64.97
2023-01-25T09:57:38.378Z,52.67
2023-01-25T10:01:55.946Z,59.83
2023-01-25T10:06:00.116Z,64.45
2023-01-25T10:10:11.659Z,60.60
2023-01-25T10:14:18.953Z,65.75
2023-01-25T10:18:32.810Z,61.72
2023-01-25T10:22:49.927Z,64.70
2023-01-25T10:27:08.925Z,66.95
2023-01-25T10:31:28.567Z,60.00
2023-01-25T10:35:39.029Z,64.88
2023-01-25T10:39:54.890Z,62.08
2023-01-25T10:44:15.475Z,65.45
2023-01-25T10:48:33.364Z,61.22
2023-01-25T10:52:38.980Z,72.50
2023-01-25T10:56:42.415Z,57.85
2023-01-25T11:00:51.902Z,63.75
2023-01-25T11:04:53.626Z,60.20
2023-01-25T11:08:55.519Z,53.47
2023-01-25T11:13:20.026Z,55.47
2023-01-25T11:17:31.674Z,55.17
2023-01-25T11:21:34.906Z,53.42
2023-01-25T11:25:36.757Z,65.18
2023-01-25T11:29:38.633Z,57.90
2023-01-25T11:33:41.995Z,61.70
2023-01-25T11:38:02.986Z,62.92
2023-01-25T11:42:26.694Z,60.20
2023-01-25T11:46:44.505Z,51.90
2023-01-25T11:50:56.323Z,57.10
2023-01-25T11:55:02.653Z,56.60
2023-01-25T11:59:32.607Z,56.15
2023-01-25T12:04:11.931Z,50.17
2023-01-25T12:08:33.084Z,53.78
2023-01-25T12:13:13.476Z,53.33
2023-01-25T12:17:31.608Z,54.60
2023-01-25T12:21:42.003Z,57.92
2023-01-25T12:26:28.177Z,49.40
2023-01-25T12:30:43.566Z,46.40
2023-01-25T12:34:51.358Z,54.05
2023-01-25T12:39:09.682Z,58.60
2023-01-25T12:43:45.323Z,43.03
2023-01-25T12:47:55.761Z,50.25
2023-01-25T12:52:02.272Z,54.72
2023-01-25T12:56:09.365Z,44.70
2023-01-25T13:00:22.212Z,50.05
2023-01-25T13:04:36.105Z,41.45
2023-01-25T13:08:49.022Z,47.92
2023-01-25T13:13:03.816Z,51.78
2023-01-25T13:17:35.547Z,58.05
2023-01-25T13:21:40.400Z,56.83
2023-01-25T13:25:42.119Z,58.45
2023-01-25T13:29:47.918Z,57.60
2023-01-25T13:33:49.664Z,61.97
2023-01-25T13:38:00.781Z,62.25
2023-01-25T13:42:04.928Z,70.25
2023-01-25T13:46:10.572Z,67.22
2023-01-25T13:50:27.120Z,68.88
2023-01-25T13:54:31.686Z,67.10
2023-01-25T13:58:46.275Z,59.40
2023-01-25T14:02:56.763Z,62.15
2023-01-25T14:07:00.461Z,55.45
2023-01-25T14:11:02.404Z,57.10
2023-01-25T14:15:19.875Z,54.00
2023-01-25T14:19:29.048Z,58.17
2023-01-25T14:23:30.808Z,58.92
2023-01-25T14:27:34.186Z,48.35
2023-01-25T14:31:37.226Z,52.45
2023-01-25T14:35:43.052Z,49.38
2023-01-25T14:39:52.439Z,49.15
2023-01-25T14:43:56.663Z,57.40
2023-01-25T14:47:59.810Z,45.05
2023-01-25T14:52:14.555Z,54.90
2023-01-25T14:56:32.660Z,50.30
2023-01-25T15:00:36.026Z,50.47
2023-01-25T15:04:37.731Z,51.50
2023-01-25T15:08:40.915Z,43.72
2023-01-25T15:12:58.508Z,56.40
2023-01-25T15:17:05.783Z,58.03
2023-01-25T15:21:14.849Z,54.00
2023-01-25T15:25:23.983Z,53.38
2023-01-25T15:29:28.962Z,54.25
2023-01-25T15:33:32.650Z,52.40
2023-01-25T15:37:34.394Z,54.47
2023-01-25T15:41:36.163Z,56.10
2023-01-25T15:45:38.647Z,53.38
2023-01-25T15:49:40.519Z,54.55
2023-01-25T15:53:42.504Z,57.33
2023-01-25T15:57:44.932Z,52.75
2023-01-25T16:01:46.710Z,56.80
2023-01-25T16:05:51.947Z,62.47
2023-01-25T16:09:53.755Z,54.30
2023-01-25T16:13:55.483Z,66.07
2023-01-25T16:17:57.237Z,60.60
2023-01-25T16:21:59.304Z,62.33
2023-01-25T16:26:01.566Z,63.58
2023-01-25T16:30:05.509Z,51.92
2023-01-25T16:34:07.282Z,61.95
2023-01-25T16:38:11.990Z,60.55
2023-01-25T16:42:13.702Z,54.25
2023-01-25T16:46:21.503Z,57.03
2023-01-25T16:50:23.799Z,54.00
2023-01-25T16:54:26.765Z,54.60
2023-01-25T16:58:28.500Z,60.38
2023-01-25T17:02:30.300Z,54.88
2023-01-25T17:06:34.865Z,50.83
2023-01-25T17:10:38.122Z,60.70
2023-01-25T17:14:41.014Z,65.55
2023-01-25T17:18:42.922Z,70.78
2023-01-25T17:22:49.717Z,60.03
2023-01-25T17:26:55.726Z,61.10
2023-01-25T17:30:57.601Z,68.28
2023-01-25T17:35:01.505Z,64.35
2023-01-25T17:39:05.118Z,68.47
2023-01-25T17:43:06.917Z,75.20
2023-01-25T17:47:08.910Z,64.53
2023-01-25T17:51:10.735Z,68.57
2023-01-25T17:55:12.450Z,74.88
2023-01-25T17:59:14.252Z,70.43
2023-01-25T18:03:15.934Z,73.55
2023-01-25T18:07:17.644Z,74.78
2023-01-25T18:11:22.219Z,80.60
2023-01-25T18:15:24.265Z,78.72
2023-01-25T18:19:26.045Z,74.43
2023-01-25T18:23:28.056Z,74.18
2023-01-25T18:27:29.977Z,76.30
2023-01-25T18:31:31.858Z,78.28
2023-01-25T18:35:33.740Z,96.72
2023-01-25T18:39:35.454Z,85.60
2023-01-25T18:43:37.273Z,82.97
2023-01-25T18:47:39.351Z,98.25
2023-01-25T18:52:01.868Z,95.35
2023-01-25T18:56:12.526Z,102.65
2023-01-25T19:00:15.082Z,97.10
2023-01-25T19:04:16.814Z,103.30
2023-01-25T19:08:19.393Z,106.68
2023-01-25T19:12:21.121Z,85.80
2023-01-25T19:16:26.290Z,89.88
2023-01-25T19:20:28.773Z,82.00
2023-01-25T19:24:30.973Z,99.93
2023-01-25T19:28:34.901Z,88.95
2023-01-25T19:32:36.639Z,96.88
2023-01-25T19:36:45.825Z,96.57
2023-01-25T19:40:47.635Z,98.82
2023-01-25T19:44:49.524Z,107.03
2023-01-25T19:48:52.282Z,100.78
2023-01-25T19:52:55.284Z,98.32
2023-01-25T19:56:58.570Z,117.93
2023-01-25T20:01:14.797Z,107.25
2023-01-25T20:05:16.779Z,99.80
2023-01-25T20:09:20.269Z,115.57
2023-01-25T20:13:22.024Z,129.50
2023-01-25T20:17:23.892Z,110.05
2023-01-25T20:21:27.096Z,115.97
2023-01-25T20:25:28.875Z,121.85
2023-01-25T20:29:31.259Z,118.60
2023-01-25T20:33:34.324Z,118.70
2023-01-25T20:37:36.025Z,125.13
2023-01-25T20:41:37.774Z,114.35
2023-01-25T20:45:39.562Z,121.45
2023-01-25T20:49:41.282Z,125.85
2023-01-25T20:53:46.265Z,126.03
2023-01-25T20:57:48.050Z,120.00
2023-01-25T21:01:50.682Z,115.72
2023-01-25T21:05:54.281Z,114.38
2023-01-25T21:09:56.043Z,112.88
2023-01-25T21:13:59.695Z,115.70
2023-01-25T21:18:01.533Z,115.07
2023-01-25T21:22:03.337Z,120.10
2023-01-25T21:26:06.993Z,101.18
2023-01-25T21:30:09.723Z,113.97
2023-01-25T21:34:11.534Z,88.95
2023-01-25T21:38:13.382Z,110.38
2023-01-25T21:42:15.203Z,98.22
2023-01-25T21:46:25.485Z,99.78
2023-01-25T21:50:45.962Z,97.28
2023-01-25T21:54:47.715Z,93.85
2023-01-25T21:58:49.538Z,87.28
2023-01-25T22:02:52.047Z,84.40
2023-01-25T22:06:54.550Z,81.13
2023-01-25T22:11:07.649Z,80.47
2023-01-25T22:15:09.778Z,84.85
2023-01-25T22:19:11.929Z,69.22
2023-01-25T22:23:13.595Z,70.80
2023-01-25T22:27:18.181Z,59.67
2023-01-25T22:31:23.138Z,70.20
2023-01-25T22:35:24.923Z,68.53
2023-01-25T22:39:27.336Z,59.38
2023-01-25T22:43:29.088Z,60.92
2023-01-25T22:47:30.915Z,67.25
2023-01-25T22:51:32.870Z,64.32
2023-01-25T22:55:34.626Z,72.90
2023-01-25T22:59:36.380Z,59.72
2023-01-25T23:03:38.820Z,55.72
2023-01-25T23:07:40.678Z,64.72
2023-01-25T23:11:42.436Z,51.95
2023-01-25T23:15:44.185Z,50.35
2023-01-25T23:19:46.004Z,60.65
2023-01-25T23:23:50.973Z,54.13
2023-01-25T23:27:52.770Z,51.63
2023-01-25T23:31:54.575Z,43.35
2023-01-25T23:35:56.364Z,45.25
2023-01-25T23:39:58.165Z,44.80
2023-01-25T23:44:00.934Z,47.80
2023-01-25T23:48:02.962Z,48.85
2023-01-25T23:52:04.941Z,46.80
2023-01-25T23:56:10.938Z,44.58
